createdAt,value
2022-10-05T03:11:04.322Z,100.00
2022-10-05T03:14:21.090Z,100.00
2022-10-05T03:17:27.360Z,100.00
2022-10-05T03:20:52.477Z,100.00
2022-10-05T03:24:25.744Z,100.00
2022-10-05T03:27:37.235Z,100.00
2022-10-05T03:31:02.992Z,100.00
2022-10-05T03:34:24.919Z,100.00
2022-10-05T03:37:46.059Z,100.00
2022-10-05T03:41:03.597Z,100.00
2022-10-05T03:44:43.941Z,100.00
2022-10-05T03:48:15.530Z,100.00
2022-10-05T03:51:34.691Z,100.00
2022-10-05T03:54:46.831Z,100.00
2022-10-05T03:57:52.383Z,100.00
2022-10-05T04:01:02.426Z,100.00
2022-10-05T04:04:11.095Z,100.00
2022-10-05T04:07:43.551Z,100.00
2022-10-05T04:10:52.239Z,100.00
2022-10-05T04:14:14.297Z,100.00
2022-10-05T04:17:21.780Z,100.00
2022-10-05T04:20:44.348Z,100.00
2022-10-05T04:23:55.561Z,100.00
2022-10-05T04:27:03.167Z,100.00
2022-10-05T04:30:12.465Z,100.00
2022-10-05T04:33:16.152Z,100.00
2022-10-05T04:36:27.641Z,100.00
2022-10-05T04:39:36.514Z,100.00
2022-10-05T04:43:16.084Z,100.00
2022-10-05T04:46:41.895Z,100.00
2022-10-05T04:49:56.811Z,100.00
2022-10-05T04:53:17.048Z,100.00
2022-10-05T04:56:29.855Z,100.00
2022-10-05T04:59:48.187Z,100.00
2022-10-05T05:03:07.625Z,100.00
2022-10-05T05:06:26.122Z,100.00
2022-10-05T05:10:14.547Z,100.00
2022-10-05T05:13:35.296Z,100.00
2022-10-05T05:16:41.587Z,100.00
2022-10-05T05:19:58.248Z,100.00
2022-10-05T05:23:28.743Z,100.00
2022-10-05T05:27:05.066Z,100.00
2022-10-05T05:30:35.697Z,100.00
2022-10-05T05:34:11.714Z,100.00
2022-10-05T05:37:36.450Z,100.00
2022-10-05T05:40:57.756Z,100.00
2022-10-05T05:44:24.299Z,100.00
2022-10-05T05:47:37.692Z,100.00
2022-10-05T05:50:59.583Z,100.00
2022-10-05T05:54:36.381Z,100.00
2022-10-05T05:57:43.460Z,100.00
2022-10-05T06:00:52.653Z,100.00
2022-10-05T06:04:27.838Z,96.50
2022-10-05T06:07:31.828Z,95.51
2022-10-05T06:10:48.271Z,93.53
2022-10-05T06:13:51.837Z,91.02
2022-10-05T06:17:09.845Z,89.63
2022-10-05T06:20:43.402Z,87.93
2022-10-05T06:24:05.020Z,87.67
2022-10-05T06:27:57.756Z,87.42
2022-10-05T06:31:26.475Z,87.79
2022-10-05T06:35:01.678Z,85.69
2022-10-05T06:38:27.038Z,84.31
2022-10-05T06:42:05.545Z,83.08
2022-10-05T06:45:41.863Z,83.74
2022-10-05T06:48:47.461Z,84.14
2022-10-05T06:51:58.428Z,82.47
2022-10-05T06:55:30.270Z,83.64
2022-10-05T06:58:47.898Z,84.43
2022-10-05T07:01:56.101Z,84.94
2022-10-05T07:05:04.990Z,81.48
2022-10-05T07:08:13.450Z,81.92
2022-10-05T07:11:18.781Z,79.45
2022-10-05T07:14:44.756Z,80.46
2022-10-05T07:18:20.076Z,78.40
2022-10-05T07:21:41.893Z,77.49
2022-10-05T07:25:10.390Z,77.94
2022-10-05T07:28:37.463Z,78.34
2022-10-05T07:31:54.985Z,77.13
2022-10-05T07:35:08.183Z,75.99
2022-10-05T07:38:19.633Z,75.03
2022-10-05T07:41:28.093Z,76.04
2022-10-05T07:44:36.384Z,75.32
2022-10-05T07:47:54.003Z,75.45
2022-10-05T07:51:01.997Z,76.37
2022-10-05T07:54:15.767Z,77.19
2022-10-05T07:57:24.835Z,75.83
2022-10-05T08:00:47.233Z,75.62
2022-10-05T08:04:10.893Z,74.97
2022-10-05T08:07:17.245Z,73.45
2022-10-05T08:10:39.311Z,73.87
2022-10-05T08:13:54.774Z,72.78
2022-10-05T08:17:02.231Z,72.92
2022-10-05T08:20:21.582Z,74.07
2022-10-05T08:23:50.741Z,73.89
2022-10-05T08:27:25.487Z,72.89
2022-10-05T08:30:31.749Z,71.93
2022-10-05T08:33:54.520Z,72.57
2022-10-05T08:37:14.124Z,69.93
2022-10-05T08:40:18.929Z,69.44
2022-10-05T08:44:02.664Z,67.57
2022-10-05T08:47:34.979Z,65.73
2022-10-05T08:51:08.442Z,64.84
2022-10-05T08:54:32.479Z,65.42
2022-10-05T08:57:53.429Z,66.09
2022-10-05T09:01:09.969Z,68.09
2022-10-05T09:04:31.622Z,68.50
2022-10-05T09:08:11.591Z,68.63
2022-10-05T09:11:36.263Z,69.39
2022-10-05T09:15:13.691Z,68.64
2022-10-05T09:18:56.509Z,65.35
2022-10-05T09:22:06.390Z,65.05
2022-10-05T09:25:21.083Z,62.85
2022-10-05T09:28:40.194Z,62.58
2022-10-05T09:32:02.292Z,61.17
2022-10-05T09:35:04.342Z,61.39
2022-10-05T09:38:27.657Z,61.43
2022-10-05T09:41:58.530Z,59.73
2022-10-05T09:45:43.647Z,58.13
2022-10-05T09:49:11.498Z,56.21
2022-10-05T09:52:38.430Z,55.70
2022-10-05T09:56:14.596Z,56.30
2022-10-05T09:59:29.300Z,56.12
2022-10-05T10:02:46.898Z,55.36
2022-10-05T10:06:10.474Z,56.20
2022-10-05T10:09:41.718Z,57.56
2022-10-05T10:13:17.698Z,57.87
2022-10-05T10:16:57.587Z,56.21
2022-10-05T10:20:14.673Z,56.04
2022-10-05T10:23:35.807Z,55.75
2022-10-05T10:26:50.258Z,54.01
2022-10-05T10:30:16.526Z,51.87
2022-10-05T10:33:40.667Z,52.36
2022-10-05T10:37:11.674Z,52.11
2022-10-05T10:40:13.887Z,50.20
2022-10-05T10:43:22.201Z,50.68
2022-10-05T10:46:45.147Z,49.90
2022-10-05T10:50:05.559Z,51.16
2022-10-05T10:53:10.227Z,50.50
2022-10-05T10:56:27.849Z,49.02
2022-10-05T10:59:53.955Z,43.13
2022-10-05T11:03:32.162Z,39.32
2022-10-05T11:07:05.509Z,42.33
2022-10-05T11:10:16.691Z,43.28
2022-10-05T11:13:48.221Z,35.95
2022-10-05T11:17:21.425Z,36.00
2022-10-05T11:20:32.539Z,31.09
2022-10-05T11:24:05.673Z,28.37
2022-10-05T11:27:26.556Z,24.91
2022-10-05T11:30:50.315Z,26.01
2022-10-05T11:34:18.347Z,29.10
2022-10-05T11:37:58.110Z,29.68
2022-10-05T11:41:16.622Z,33.45
2022-10-05T11:44:57.577Z,41.14
2022-10-05T11:48:07.206Z,45.06
2022-10-05T11:51:30.435Z,46.13
2022-10-05T11:55:06.005Z,47.59
2022-10-05T11:58:29.981Z,49.20
2022-10-05T12:01:52.388Z,49.47
2022-10-05T12:05:11.177Z,48.78
2022-10-05T12:08:25.641Z,51.45
2022-10-05T12:11:49.517Z,50.43
2022-10-05T12:15:03.191Z,51.25
2022-10-05T12:18:17.159Z,49.90
2022-10-05T12:21:47.119Z,50.09
2022-10-05T12:25:02.969Z,50.94
2022-10-05T12:28:12.110Z,50.92
2022-10-05T12:31:39.004Z,50.00
2022-10-05T12:34:56.579Z,51.09
2022-10-05T12:38:26.982Z,51.91
2022-10-05T12:41:53.997Z,51.03
2022-10-05T12:45:03.838Z,51.22
2022-10-05T12:48:18.720Z,50.29
2022-10-05T12:51:36.125Z,49.93
2022-10-05T12:54:57.973Z,49.23
2022-10-05T12:58:15.894Z,47.86
2022-10-05T13:01:43.464Z,47.87
2022-10-05T13:05:01.822Z,47.73
2022-10-05T13:08:31.184Z,48.71
2022-10-05T13:11:44.191Z,47.91
2022-10-05T13:14:59.766Z,48.49
2022-10-05T13:18:12.028Z,49.43
2022-10-05T13:21:26.755Z,50.10
2022-10-05T13:24:36.360Z,50.28
2022-10-05T13:27:45.228Z,51.22
2022-10-05T13:31:03.968Z,51.23
2022-10-05T13:34:15.006Z,50.34
2022-10-05T13:37:45.188Z,50.64
2022-10-05T13:41:24.715Z,50.46
2022-10-05T13:44:52.992Z,51.57
2022-10-05T13:48:24.332Z,50.37
2022-10-05T13:51:46.456Z,50.37
2022-10-05T13:55:06.735Z,52.41
2022-10-05T13:58:20.688Z,51.83
2022-10-05T14:01:41.424Z,51.87
2022-10-05T14:04:58.316Z,51.44
2022-10-05T14:08:03.149Z,51.29
2022-10-05T14:11:36.019Z,51.44
2022-10-05T14:14:45.136Z,51.95
2022-10-05T14:17:47.483Z,52.63
2022-10-05T14:21:02.463Z,53.50
2022-10-05T14:24:49.449Z,52.07
2022-10-05T14:28:23.944Z,51.78
2022-10-05T14:31:34.179Z,52.38
2022-10-05T14:34:42.705Z,53.05
2022-10-05T14:37:56.079Z,54.86
2022-10-05T14:41:20.444Z,54.37
2022-10-05T14:48:10.314Z,54.51
2022-10-05T14:51:31.762Z,55.32
2022-10-05T14:54:41.216Z,55.74
2022-10-05T14:58:18.621Z,55.47
2022-10-05T15:01:26.722Z,56.06
2022-10-05T15:04:41.681Z,55.61
2022-10-05T15:07:48.653Z,55.82
2022-10-05T15:11:09.142Z,55.96
2022-10-05T15:14:19.247Z,56.15
2022-10-05T15:17:30.885Z,55.57
